Historique des mesures à Cassis (13260), France
Quotidien Résumé Fevrier 1, 2020 Unités:  Métrique/US    US   Métrique
Quotidien Hebdomadaire Mensuel Annuel
  Maximum: Minimum: Moyenne:
Température: 97.2 °F /  36.2 °C 76.6 °F /  24.8 °C 86.4 °F /  30.2 °C
Point de rosée: 74.7 °F /  23.7 °C 53.6 °F /  12 °C 62.1 °F /  16.7 °C
Humidité: 59% 33% 45%
Vitesse du vent: 12.1mph /  19.4km/h - 2.4mph /  3.8km/h
Rafales: 16.1mph /  25.9km/h - -
Vent- - SSW
Pression: 29.9 in /  1012.3 hPa 29.8 in /  1007.9 hPa -
Précipitations: 0 in /  0.0 mm    
Historical Graphs
 
 
Mesures pour : Fevrier 1, 2020
Heure Temperature Point de rosée Pression Vent Vitesse du vent Rafales Humidité Pluie (par heure)
00:11 81.3 °F /  27.4 °C 55.4 °F /  13 °C 29.9in /  1012.3hPa WNW 2.7mph /  4.3km/h 2.7mph /  4.3km/h 41% 0in /  0.0mm
01:11 80.6 °F /  27 °C 54.7 °F /  12.6 °C 29.9in /  1011.9hPa WNW 1.4mph /  2.2km/h 3.1mph /  5km/h 41% 0in /  0.0mm
02:11 80.2 °F /  26.8 °C 54.5 °F /  12.5 °C 29.9in /  1011.5hPa Calm   1.4mph /  2.2km/h 41% 0in /  0.0mm
03:11 79 °F /  26.1 °C 54.5 °F /  12.5 °C 29.9in /  1011.0hPa Calm     43% 0in /  0.0mm
04:11 78.6 °F /  25.9 °C 53.6 °F /  12 °C 29.8in /  1010.6hPa Calm   1.6mph /  2.5km/h 42% 0in /  0.0mm
05:11 78.4 °F /  25.8 °C 54 °F /  12.2 °C 29.9in /  1010.8hPa Calm     43% 0in /  0.0mm
06:11 76.6 °F /  24.8 °C 53.6 °F /  12 °C 29.8in /  1010.7hPa Calm   2mph /  3.2km/h 45% 0in /  0.0mm
07:11 76.6 °F /  24.8 °C 54.3 °F /  12.4 °C 29.9in /  1010.9hPa Calm   1.4mph /  2.2km/h 46% 0in /  0.0mm
08:11 82.2 °F /  27.9 °C 56.3 °F /  13.5 °C 29.8in /  1010.7hPa Calm   2.5mph /  4km/h 41% 0in /  0.0mm
09:11 83.8 °F /  28.8 °C 57.7 °F /  14.3 °C 29.9in /  1010.8hPa Calm   3.6mph /  5.8km/h 41% 0in /  0.0mm
10:11 85.8 °F /  29.9 °C 58.8 °F /  14.9 °C 29.8in /  1010.6hPa South 2.9mph /  4.7km/h 3.4mph /  5.4km/h 40% 0in /  0.0mm
11:11 91.6 °F /  33.1 °C 61.5 °F /  16.4 °C 29.8in /  1010.4hPa ESE 1.8mph /  2.9km/h 6mph /  9.7km/h 37% 0in /  0.0mm
12:11 95.4 °F /  35.2 °C 65.7 °F /  18.7 °C 29.8in /  1010.2hPa ESE 1.4mph /  2.2km/h 6.7mph /  10.8km/h 38% 0in /  0.0mm
13:11 95.7 °F /  35.4 °C 68.9 °F /  20.5 °C 29.8in /  1009.8hPa SE 3.1mph /  5km/h 4.7mph /  7.6km/h 42% 0in /  0.0mm
14:11 97.2 °F /  36.2 °C 70.2 °F /  21.2 °C 29.8in /  1009.2hPa SE 2.7mph /  4.3km/h 7.1mph /  11.5km/h 42% 0in /  0.0mm
15:11 94.8 °F /  34.9 °C 72.7 °F /  22.6 °C 29.8in /  1009.0hPa SE 2mph /  3.2km/h 5.6mph /  9km/h 49% 0in /  0.0mm
16:11 93.4 °F /  34.1 °C 73 °F /  22.8 °C 29.8in /  1008.5hPa SE 4.2mph /  6.8km/h 6.5mph /  10.4km/h 52% 0in /  0.0mm
17:11 91 °F /  32.8 °C 74.7 °F /  23.7 °C 29.8in /  1008.7hPa Calm   9.2mph /  14.8km/h 59% 0in /  0.0mm
18:11 90.1 °F /  32.3 °C 72.3 °F /  22.4 °C 29.8in /  1008.3hPa SE 4.5mph /  7.2km/h 4.5mph /  7.2km/h 56% 0in /  0.0mm
19:11 89.2 °F /  31.8 °C 69.3 °F /  20.7 °C 29.8in /  1008.1hPa West 12.1mph /  19.4km/h 12.1mph /  19.4km/h 52% 0in /  0.0mm
20:11 88.7 °F /  31.5 °C 70.5 °F /  21.4 °C 29.8in /  1008.8hPa WNW 2mph /  3.2km/h 16.1mph /  25.9km/h 55% 0in /  0.0mm
21:11 87.1 °F /  30.6 °C 69.4 °F /  20.8 °C 29.8in /  1009.6hPa WNW 6.3mph /  10.1km/h 7.4mph /  11.9km/h 56% 0in /  0.0mm
22:11 86.2 °F /  30.1 °C 57.6 °F /  14.2 °C 29.8in /  1008.7hPa NW 1.4mph /  2.2km/h 6.5mph /  10.4km/h 38% 0in /  0.0mm
23:11 87.4 °F /  30.8 °C 54.7 °F /  12.6 °C 29.8in /  1007.9hPa NW 8.3mph /  13.3km/h 8.3mph /  13.3km/h 33% 0in /  0.0mm
Observations météo à CASSIS
WU-History script by Weather Underground - 2 mb